sensor_id;sensor_type;location;lat;lon;timestamp;noise_LAeq;noise_LA_min;noise_LA_max;noise_LA01;noise_LA95
38366;Laerm;943;51.568;6.998;2023-06-22T00:01:29;38.31;34.60;46.97;;
38366;Laerm;943;51.568;6.998;2023-06-22T00:03:58;43.13;35.08;68.30;;
38366;Laerm;943;51.568;6.998;2023-06-22T00:06:27;39.86;33.82;48.96;;
38366;Laerm;943;51.568;6.998;2023-06-22T00:08:55;39.09;33.77;46.12;;
38366;Laerm;943;51.568;6.998;2023-06-22T00:11:24;40.95;36.18;58.92;;
38366;Laerm;943;51.568;6.998;2023-06-22T00:13:52;38.17;33.61;51.49;;
38366;Laerm;943;51.568;6.998;2023-06-22T00:16:21;40.34;35.01;46.89;;
38366;Laerm;943;51.568;6.998;2023-06-22T00:18:49;41.64;37.19;48.25;;
38366;Laerm;943;51.568;6.998;2023-06-22T00:21:18;41.01;35.90;61.28;;
38366;Laerm;943;51.568;6.998;2023-06-22T00:23:49;41.46;34.46;61.61;;
38366;Laerm;943;51.568;6.998;2023-06-22T00:26:19;41.54;35.63;61.79;;
38366;Laerm;943;51.568;6.998;2023-06-22T00:28:48;51.02;35.18;77.58;;
38366;Laerm;943;51.568;6.998;2023-06-22T00:31:16;39.70;32.85;49.06;;
38366;Laerm;943;51.568;6.998;2023-06-22T00:33:44;41.17;36.05;51.00;;
38366;Laerm;943;51.568;6.998;2023-06-22T00:36:13;41.97;37.00;53.04;;
38366;Laerm;943;51.568;6.998;2023-06-22T00:38:44;41.83;34.17;51.00;;
38366;Laerm;943;51.568;6.998;2023-06-22T00:41:13;41.46;35.15;52.81;;
38366;Laerm;943;51.568;6.998;2023-06-22T00:43:42;40.07;36.54;45.51;;
38366;Laerm;943;51.568;6.998;2023-06-22T00:46:11;38.90;34.78;44.51;;
38366;Laerm;943;51.568;6.998;2023-06-22T00:48:40;41.08;36.06;51.00;;
38366;Laerm;943;51.568;6.998;2023-06-22T00:51:12;39.02;33.97;51.48;;
38366;Laerm;943;51.568;6.998;2023-06-22T00:53:41;39.10;33.02;48.36;;
38366;Laerm;943;51.568;6.998;2023-06-22T00:56:11;41.16;36.06;50.51;;
38366;Laerm;943;51.568;6.998;2023-06-22T00:58:41;38.68;34.13;47.44;;
38366;Laerm;943;51.568;6.998;2023-06-22T01:01:09;39.35;34.23;48.96;;
38366;Laerm;943;51.568;6.998;2023-06-22T01:03:37;39.22;34.57;49.21;;
38366;Laerm;943;51.568;6.998;2023-06-22T01:06:22;38.71;34.48;44.74;;
38366;Laerm;943;51.568;6.998;2023-06-22T01:09:24;39.92;36.01;47.11;;
38366;Laerm;943;51.568;6.998;2023-06-22T01:12:04;38.34;34.76;42.77;;
38366;Laerm;943;51.568;6.998;2023-06-22T01:15:07;39.18;34.88;46.07;;
38366;Laerm;943;51.568;6.998;2023-06-22T01:17:43;39.76;35.16;45.87;;
38366;Laerm;943;51.568;6.998;2023-06-22T01:20:16;39.32;36.33;45.75;;
38366;Laerm;943;51.568;6.998;2023-06-22T01:27:05;39.65;35.49;46.92;;
38366;Laerm;943;51.568;6.998;2023-06-22T01:29:39;38.58;35.25;45.08;;
38366;Laerm;943;51.568;6.998;2023-06-22T01:32:12;38.54;34.74;43.65;;
38366;Laerm;943;51.568;6.998;2023-06-22T01:34:42;38.22;34.72;44.79;;
38366;Laerm;943;51.568;6.998;2023-06-22T01:37:12;38.22;34.28;43.04;;
38366;Laerm;943;51.568;6.998;2023-06-22T01:39:42;38.26;35.43;42.22;;
38366;Laerm;943;51.568;6.998;2023-06-22T01:42:11;37.68;34.25;46.14;;
38366;Laerm;943;51.568;6.998;2023-06-22T01:44:41;37.98;33.70;42.61;;
38366;Laerm;943;51.568;6.998;2023-06-22T01:47:11;38.70;33.89;47.35;;
38366;Laerm;943;51.568;6.998;2023-06-22T01:49:44;40.12;34.89;46.74;;
38366;Laerm;943;51.568;6.998;2023-06-22T01:52:13;39.68;35.27;45.24;;
38366;Laerm;943;51.568;6.998;2023-06-22T01:54:42;40.34;36.70;46.46;;
38366;Laerm;943;51.568;6.998;2023-06-22T01:57:13;41.18;37.14;46.69;;
38366;Laerm;943;51.568;6.998;2023-06-22T02:00:04;40.66;36.28;46.51;;
38366;Laerm;943;51.568;6.998;2023-06-22T02:03:10;43.81;36.52;57.76;;
38366;Laerm;943;51.568;6.998;2023-06-22T02:05:53;44.40;35.47;57.31;;
38366;Laerm;943;51.568;6.998;2023-06-22T02:08:41;44.64;35.70;59.22;;
38366;Laerm;943;51.568;6.998;2023-06-22T02:11:14;44.30;35.08;65.58;;
38366;Laerm;943;51.568;6.998;2023-06-22T02:13:46;50.76;35.67;67.52;;
38366;Laerm;943;51.568;6.998;2023-06-22T02:16:17;53.77;37.34;66.70;;
38366;Laerm;943;51.568;6.998;2023-06-22T02:18:49;53.50;37.57;65.41;;
38366;Laerm;943;51.568;6.998;2023-06-22T02:21:22;53.12;36.27;64.60;;
38366;Laerm;943;51.568;6.998;2023-06-22T02:23:51;54.59;35.93;65.25;;
38366;Laerm;943;51.568;6.998;2023-06-22T02:26:19;53.68;37.47;66.82;;
38366;Laerm;943;51.568;6.998;2023-06-22T02:28:48;53.71;36.98;68.86;;
38366;Laerm;943;51.568;6.998;2023-06-22T02:31:19;54.56;37.30;68.66;;
38366;Laerm;943;51.568;6.998;2023-06-22T02:33:48;53.05;36.63;68.86;;
38366;Laerm;943;51.568;6.998;2023-06-22T02:36:19;52.67;37.84;69.49;;
38366;Laerm;943;51.568;6.998;2023-06-22T02:38:55;57.19;37.66;70.68;;
38366;Laerm;943;51.568;6.998;2023-06-22T02:41:28;57.41;39.67;72.34;;
38366;Laerm;943;51.568;6.998;2023-06-22T02:43:57;54.54;39.53;72.22;;
38366;Laerm;943;51.568;6.998;2023-06-22T02:46:26;50.74;38.21;66.07;;
38366;Laerm;943;51.568;6.998;2023-06-22T02:48:54;51.02;39.81;66.81;;
38366;Laerm;943;51.568;6.998;2023-06-22T02:51:23;48.04;41.32;64.13;;
38366;Laerm;943;51.568;6.998;2023-06-22T02:53:51;45.98;40.28;63.08;;
38366;Laerm;943;51.568;6.998;2023-06-22T02:56:25;50.85;40.46;65.59;;
38366;Laerm;943;51.568;6.998;2023-06-22T02:58:59;50.79;39.69;68.51;;
38366;Laerm;943;51.568;6.998;2023-06-22T03:01:35;50.33;40.04;65.94;;
38366;Laerm;943;51.568;6.998;2023-06-22T03:04:20;51.33;40.86;68.83;;
38366;Laerm;943;51.568;6.998;2023-06-22T03:06:49;51.00;40.36;66.70;;
38366;Laerm;943;51.568;6.998;2023-06-22T03:09:20;50.58;40.25;66.49;;
38366;Laerm;943;51.568;6.998;2023-06-22T03:11:49;50.93;40.14;67.35;;
38366;Laerm;943;51.568;6.998;2023-06-22T03:14:19;50.35;39.74;67.39;;
38366;Laerm;943;51.568;6.998;2023-06-22T03:16:48;49.63;39.04;68.41;;
38366;Laerm;943;51.568;6.998;2023-06-22T03:19:19;48.23;39.93;65.73;;
38366;Laerm;943;51.568;6.998;2023-06-22T03:21:50;50.04;40.84;65.28;;
38366;Laerm;943;51.568;6.998;2023-06-22T03:24:19;48.93;40.07;67.80;;
38366;Laerm;943;51.568;6.998;2023-06-22T03:26:48;48.40;40.67;62.41;;
38366;Laerm;943;51.568;6.998;2023-06-22T03:29:17;48.72;42.09;64.68;;
38366;Laerm;943;51.568;6.998;2023-06-22T03:31:47;48.53;40.73;63.32;;
38366;Laerm;943;51.568;6.998;2023-06-22T03:34:16;48.58;41.87;65.44;;
38366;Laerm;943;51.568;6.998;2023-06-22T03:36:45;48.84;41.33;63.40;;
38366;Laerm;943;51.568;6.998;2023-06-22T03:39:13;48.08;40.14;62.17;;
38366;Laerm;943;51.568;6.998;2023-06-22T03:41:42;47.97;40.20;66.40;;
38366;Laerm;943;51.568;6.998;2023-06-22T03:44:11;47.67;40.90;63.94;;
38366;Laerm;943;51.568;6.998;2023-06-22T03:46:40;47.47;40.29;64.16;;
38366;Laerm;943;51.568;6.998;2023-06-22T03:49:09;44.28;39.83;54.83;;
38366;Laerm;943;51.568;6.998;2023-06-22T03:51:38;43.74;40.49;52.56;;
38366;Laerm;943;51.568;6.998;2023-06-22T03:54:08;45.63;40.31;55.85;;
38366;Laerm;943;51.568;6.998;2023-06-22T03:56:40;48.75;41.39;63.79;;
38366;Laerm;943;51.568;6.998;2023-06-22T03:59:11;48.93;42.03;65.06;;
38366;Laerm;943;51.568;6.998;2023-06-22T04:01:41;49.37;42.47;65.07;;
38366;Laerm;943;51.568;6.998;2023-06-22T04:04:09;48.86;41.07;63.75;;
38366;Laerm;943;51.568;6.998;2023-06-22T04:06:39;49.27;41.48;67.20;;
38366;Laerm;943;51.568;6.998;2023-06-22T04:09:07;48.88;42.54;64.62;;
38366;Laerm;943;51.568;6.998;2023-06-22T04:11:37;48.90;40.79;66.70;;
38366;Laerm;943;51.568;6.998;2023-06-22T04:14:05;50.90;41.79;69.34;;
38366;Laerm;943;51.568;6.998;2023-06-22T04:16:34;49.37;41.92;67.86;;
38366;Laerm;943;51.568;6.998;2023-06-22T04:19:02;49.81;43.21;64.18;;
38366;Laerm;943;51.568;6.998;2023-06-22T04:21:32;48.88;41.91;63.55;;
38366;Laerm;943;51.568;6.998;2023-06-22T04:24:00;48.44;41.62;63.86;;
38366;Laerm;943;51.568;6.998;2023-06-22T04:26:29;48.69;40.70;64.41;;
38366;Laerm;943;51.568;6.998;2023-06-22T04:28:57;48.03;40.63;64.35;;
38366;Laerm;943;51.568;6.998;2023-06-22T04:31:26;48.63;41.88;63.02;;
38366;Laerm;943;51.568;6.998;2023-06-22T04:34:01;47.42;40.72;64.50;;
38366;Laerm;943;51.568;6.998;2023-06-22T04:36:40;46.69;40.77;60.80;;
38366;Laerm;943;51.568;6.998;2023-06-22T04:39:12;46.54;42.29;56.85;;
38366;Laerm;943;51.568;6.998;2023-06-22T04:41:41;45.07;41.41;53.56;;
38366;Laerm;943;51.568;6.998;2023-06-22T04:44:16;45.49;42.07;51.93;;
38366;Laerm;943;51.568;6.998;2023-06-22T04:46:58;47.08;40.99;58.59;;
38366;Laerm;943;51.568;6.998;2023-06-22T04:49:32;45.70;41.92;51.77;;
38366;Laerm;943;51.568;6.998;2023-06-22T04:52:09;45.86;40.50;56.45;;
38366;Laerm;943;51.568;6.998;2023-06-22T04:54:41;46.47;41.65;58.91;;
38366;Laerm;943;51.568;6.998;2023-06-22T04:57:16;45.09;40.61;57.55;;
38366;Laerm;943;51.568;6.998;2023-06-22T04:59:44;47.72;41.74;57.29;;
38366;Laerm;943;51.568;6.998;2023-06-22T05:02:13;46.56;40.91;59.90;;
38366;Laerm;943;51.568;6.998;2023-06-22T05:04:42;46.43;41.97;60.02;;
38366;Laerm;943;51.568;6.998;2023-06-22T05:07:11;46.14;40.94;59.01;;
38366;Laerm;943;51.568;6.998;2023-06-22T05:09:40;49.36;41.79;63.34;;
38366;Laerm;943;51.568;6.998;2023-06-22T05:12:09;52.03;45.89;61.78;;
38366;Laerm;943;51.568;6.998;2023-06-22T05:14:38;52.77;43.88;62.00;;
38366;Laerm;943;51.568;6.998;2023-06-22T05:17:07;53.80;43.65;69.47;;
38366;Laerm;943;51.568;6.998;2023-06-22T05:19:43;52.82;43.87;63.38;;
38366;Laerm;943;51.568;6.998;2023-06-22T05:22:17;51.64;44.22;62.16;;
38366;Laerm;943;51.568;6.998;2023-06-22T05:24:47;66.81;46.52;79.51;;
38366;Laerm;943;51.568;6.998;2023-06-22T05:27:16;65.90;54.38;76.23;;
38366;Laerm;943;51.568;6.998;2023-06-22T05:29:44;61.85;54.48;67.29;;
38366;Laerm;943;51.568;6.998;2023-06-22T05:32:12;66.69;55.73;77.77;;
38366;Laerm;943;51.568;6.998;2023-06-22T05:34:41;57.59;45.37;69.17;;
38366;Laerm;943;51.568;6.998;2023-06-22T05:37:10;56.01;44.45;66.45;;
38366;Laerm;943;51.568;6.998;2023-06-22T05:39:39;47.91;43.48;51.62;;
38366;Laerm;943;51.568;6.998;2023-06-22T05:42:09;48.17;43.60;57.27;;
38366;Laerm;943;51.568;6.998;2023-06-22T05:44:38;49.60;42.24;60.11;;
38366;Laerm;943;51.568;6.998;2023-06-22T05:47:09;51.34;44.37;61.70;;
38366;Laerm;943;51.568;6.998;2023-06-22T05:49:39;50.37;41.79;65.21;;
38366;Laerm;943;51.568;6.998;2023-06-22T05:52:10;49.21;39.97;67.65;;
38366;Laerm;943;51.568;6.998;2023-06-22T05:54:41;50.24;43.51;60.14;;
38366;Laerm;943;51.568;6.998;2023-06-22T05:57:11;51.98;41.68;69.24;;
38366;Laerm;943;51.568;6.998;2023-06-22T05:59:41;49.65;41.56;67.93;;
38366;Laerm;943;51.568;6.998;2023-06-22T06:02:09;50.71;40.23;66.31;;
38366;Laerm;943;51.568;6.998;2023-06-22T06:04:38;49.25;39.63;69.60;;
38366;Laerm;943;51.568;6.998;2023-06-22T06:07:08;49.53;41.08;62.62;;
38366;Laerm;943;51.568;6.998;2023-06-22T06:09:37;54.46;41.73;71.97;;
38366;Laerm;943;51.568;6.998;2023-06-22T06:12:07;60.43;41.84;69.80;;
38366;Laerm;943;51.568;6.998;2023-06-22T06:14:38;57.98;42.53;68.61;;
38366;Laerm;943;51.568;6.998;2023-06-22T06:17:07;54.00;41.12;70.13;;
38366;Laerm;943;51.568;6.998;2023-06-22T06:19:36;63.18;41.83;77.00;;
38366;Laerm;943;51.568;6.998;2023-06-22T06:22:05;57.63;42.17;70.20;;
38366;Laerm;943;51.568;6.998;2023-06-22T06:24:33;48.93;41.01;61.41;;
38366;Laerm;943;51.568;6.998;2023-06-22T06:27:02;47.06;41.56;60.58;;
38366;Laerm;943;51.568;6.998;2023-06-22T06:29:33;51.14;40.98;65.08;;
38366;Laerm;943;51.568;6.998;2023-06-22T06:32:02;47.96;41.25;60.11;;
38366;Laerm;943;51.568;6.998;2023-06-22T06:34:31;47.75;42.32;59.83;;
38366;Laerm;943;51.568;6.998;2023-06-22T06:36:59;48.32;41.65;59.70;;
38366;Laerm;943;51.568;6.998;2023-06-22T06:39:29;48.02;42.15;59.41;;
38366;Laerm;943;51.568;6.998;2023-06-22T06:42:04;47.40;40.99;60.08;;
38366;Laerm;943;51.568;6.998;2023-06-22T06:44:37;45.54;41.76;57.36;;
38366;Laerm;943;51.568;6.998;2023-06-22T06:47:06;46.39;41.02;63.66;;
38366;Laerm;943;51.568;6.998;2023-06-22T06:49:34;47.32;43.27;61.44;;
38366;Laerm;943;51.568;6.998;2023-06-22T06:52:04;48.43;42.19;60.36;;
38366;Laerm;943;51.568;6.998;2023-06-22T06:54:33;45.42;41.57;57.08;;
38366;Laerm;943;51.568;6.998;2023-06-22T06:57:01;47.63;41.45;65.68;;
38366;Laerm;943;51.568;6.998;2023-06-22T06:59:31;48.40;41.32;60.48;;
38366;Laerm;943;51.568;6.998;2023-06-22T07:01:59;46.25;42.19;57.02;;
38366;Laerm;943;51.568;6.998;2023-06-22T07:04:29;46.47;41.94;52.29;;
38366;Laerm;943;51.568;6.998;2023-06-22T07:07:05;46.35;42.30;59.51;;
38366;Laerm;943;51.568;6.998;2023-06-22T07:09:34;47.28;42.57;63.93;;
38366;Laerm;943;51.568;6.998;2023-06-22T07:12:03;48.05;41.25;61.83;;
38366;Laerm;943;51.568;6.998;2023-06-22T07:14:31;48.31;40.84;65.11;;
38366;Laerm;943;51.568;6.998;2023-06-22T07:17:00;48.49;41.61;62.04;;
38366;Laerm;943;51.568;6.998;2023-06-22T07:19:29;50.69;42.86;67.51;;
38366;Laerm;943;51.568;6.998;2023-06-22T07:21:59;49.52;43.04;64.08;;
38366;Laerm;943;51.568;6.998;2023-06-22T07:24:27;48.40;42.57;63.08;;
38366;Laerm;943;51.568;6.998;2023-06-22T07:26:56;49.06;43.83;59.67;;
38366;Laerm;943;51.568;6.998;2023-06-22T07:29:26;47.24;41.75;60.73;;
38366;Laerm;943;51.568;6.998;2023-06-22T07:31:55;45.73;40.33;61.49;;
38366;Laerm;943;51.568;6.998;2023-06-22T07:34:24;44.60;40.84;56.95;;
38366;Laerm;943;51.568;6.998;2023-06-22T07:36:53;46.28;40.90;60.00;;
38366;Laerm;943;51.568;6.998;2023-06-22T07:39:21;52.51;41.72;68.34;;
38366;Laerm;943;51.568;6.998;2023-06-22T07:41:54;49.01;42.55;62.81;;
38366;Laerm;943;51.568;6.998;2023-06-22T07:44:23;48.32;42.34;56.24;;
38366;Laerm;943;51.568;6.998;2023-06-22T07:46:52;45.14;40.87;48.98;;
38366;Laerm;943;51.568;6.998;2023-06-22T07:49:21;45.63;40.62;57.89;;
38366;Laerm;943;51.568;6.998;2023-06-22T07:51:50;46.00;40.97;57.12;;
38366;Laerm;943;51.568;6.998;2023-06-22T07:54:19;48.70;40.46;71.55;;
38366;Laerm;943;51.568;6.998;2023-06-22T07:56:48;46.95;41.64;59.56;;
38366;Laerm;943;51.568;6.998;2023-06-22T07:59:17;46.76;40.45;62.08;;
38366;Laerm;943;51.568;6.998;2023-06-22T08:01:45;50.87;39.70;69.83;;
38366;Laerm;943;51.568;6.998;2023-06-22T08:04:17;44.99;39.60;62.54;;
38366;Laerm;943;51.568;6.998;2023-06-22T08:06:46;45.89;39.50;63.19;;
38366;Laerm;943;51.568;6.998;2023-06-22T08:09:15;48.26;39.19;63.03;;
38366;Laerm;943;51.568;6.998;2023-06-22T08:11:43;49.40;40.13;60.68;;
38366;Laerm;943;51.568;6.998;2023-06-22T08:14:11;46.53;38.82;59.34;;
38366;Laerm;943;51.568;6.998;2023-06-22T08:16:42;46.72;39.38;60.36;;
38366;Laerm;943;51.568;6.998;2023-06-22T08:19:10;52.72;42.33;67.37;;
38366;Laerm;943;51.568;6.998;2023-06-22T08:21:38;53.46;43.32;64.62;;
38366;Laerm;943;51.568;6.998;2023-06-22T08:24:07;48.25;41.46;68.34;;
38366;Laerm;943;51.568;6.998;2023-06-22T08:26:36;50.38;40.77;68.57;;
38366;Laerm;943;51.568;6.998;2023-06-22T08:29:06;47.53;40.06;61.97;;
38366;Laerm;943;51.568;6.998;2023-06-22T08:31:39;47.50;39.59;55.55;;
38366;Laerm;943;51.568;6.998;2023-06-22T08:34:09;45.56;39.82;62.54;;
38366;Laerm;943;51.568;6.998;2023-06-22T08:36:38;47.39;41.47;57.70;;
38366;Laerm;943;51.568;6.998;2023-06-22T08:39:09;48.45;41.23;67.34;;
38366;Laerm;943;51.568;6.998;2023-06-22T08:41:38;46.85;40.50;59.77;;
38366;Laerm;943;51.568;6.998;2023-06-22T08:44:07;50.80;43.14;75.09;;
38366;Laerm;943;51.568;6.998;2023-06-22T08:46:36;48.60;41.71;69.38;;
38366;Laerm;943;51.568;6.998;2023-06-22T08:49:13;50.39;41.23;65.04;;
38366;Laerm;943;51.568;6.998;2023-06-22T08:51:45;54.74;42.01;66.57;;
38366;Laerm;943;51.568;6.998;2023-06-22T08:54:17;49.32;42.03;64.81;;
38366;Laerm;943;51.568;6.998;2023-06-22T08:56:45;47.07;41.13;60.41;;
38366;Laerm;943;51.568;6.998;2023-06-22T08:59:14;51.14;42.58;64.72;;
38366;Laerm;943;51.568;6.998;2023-06-22T09:01:42;50.21;42.32;65.72;;
38366;Laerm;943;51.568;6.998;2023-06-22T09:04:16;46.99;41.97;61.39;;
38366;Laerm;943;51.568;6.998;2023-06-22T09:06:45;50.65;42.71;68.34;;
38366;Laerm;943;51.568;6.998;2023-06-22T09:09:16;51.05;40.46;65.63;;
38366;Laerm;943;51.568;6.998;2023-06-22T09:11:45;47.74;40.05;63.05;;
38366;Laerm;943;51.568;6.998;2023-06-22T09:14:13;49.41;41.62;64.47;;
38366;Laerm;943;51.568;6.998;2023-06-22T09:16:43;51.00;40.53;67.07;;
38366;Laerm;943;51.568;6.998;2023-06-22T09:19:12;50.57;41.33;64.34;;
38366;Laerm;943;51.568;6.998;2023-06-22T09:21:41;45.95;40.61;62.74;;
38366;Laerm;943;51.568;6.998;2023-06-22T09:24:11;47.79;41.87;57.33;;
38366;Laerm;943;51.568;6.998;2023-06-22T09:26:41;50.33;41.66;71.74;;
38366;Laerm;943;51.568;6.998;2023-06-22T09:29:12;47.35;40.64;60.09;;
38366;Laerm;943;51.568;6.998;2023-06-22T09:31:40;44.18;39.80;50.86;;
38366;Laerm;943;51.568;6.998;2023-06-22T09:34:08;46.55;40.12;59.08;;
38366;Laerm;943;51.568;6.998;2023-06-22T09:36:37;49.14;41.45;63.42;;
38366;Laerm;943;51.568;6.998;2023-06-22T09:39:07;48.25;42.39;58.97;;
38366;Laerm;943;51.568;6.998;2023-06-22T09:41:36;45.43;41.11;55.42;;
38366;Laerm;943;51.568;6.998;2023-06-22T09:44:04;49.18;41.22;70.32;;
38366;Laerm;943;51.568;6.998;2023-06-22T09:46:33;50.38;42.53;63.79;;
38366;Laerm;943;51.568;6.998;2023-06-22T09:49:01;50.12;42.51;65.19;;
38366;Laerm;943;51.568;6.998;2023-06-22T09:51:29;49.44;39.19;68.77;;
38366;Laerm;943;51.568;6.998;2023-06-22T09:53:58;47.71;41.44;60.34;;
38366;Laerm;943;51.568;6.998;2023-06-22T09:56:26;47.82;41.50;57.62;;
38366;Laerm;943;51.568;6.998;2023-06-22T09:58:56;48.79;40.51;61.25;;
38366;Laerm;943;51.568;6.998;2023-06-22T10:01:44;46.81;39.50;58.03;;
38366;Laerm;943;51.568;6.998;2023-06-22T10:04:12;47.26;40.52;61.10;;
38366;Laerm;943;51.568;6.998;2023-06-22T10:06:41;48.23;40.01;63.07;;
38366;Laerm;943;51.568;6.998;2023-06-22T10:09:10;49.42;40.62;65.11;;
38366;Laerm;943;51.568;6.998;2023-06-22T10:11:38;48.01;40.36;62.87;;
38366;Laerm;943;51.568;6.998;2023-06-22T10:14:06;48.65;39.23;64.58;;
38366;Laerm;943;51.568;6.998;2023-06-22T10:16:37;47.53;39.17;61.94;;
38366;Laerm;943;51.568;6.998;2023-06-22T10:19:05;48.42;41.64;67.45;;
38366;Laerm;943;51.568;6.998;2023-06-22T10:21:34;48.59;41.41;65.27;;
38366;Laerm;943;51.568;6.998;2023-06-22T10:24:04;49.85;40.72;64.39;;
38366;Laerm;943;51.568;6.998;2023-06-22T10:26:37;51.27;41.85;67.19;;
38366;Laerm;943;51.568;6.998;2023-06-22T10:29:06;51.08;41.14;71.30;;
38366;Laerm;943;51.568;6.998;2023-06-22T10:31:44;51.86;41.02;65.76;;
38366;Laerm;943;51.568;6.998;2023-06-22T10:34:13;51.73;41.84;64.51;;
38366;Laerm;943;51.568;6.998;2023-06-22T10:36:41;49.74;41.34;64.80;;
38366;Laerm;943;51.568;6.998;2023-06-22T10:39:09;53.78;45.48;79.44;;
38366;Laerm;943;51.568;6.998;2023-06-22T10:41:38;50.16;41.64;63.56;;
38366;Laerm;943;51.568;6.998;2023-06-22T10:44:06;48.15;40.84;59.92;;
38366;Laerm;943;51.568;6.998;2023-06-22T10:46:35;47.66;42.34;57.15;;
38366;Laerm;943;51.568;6.998;2023-06-22T10:49:03;48.19;43.27;57.50;;
38366;Laerm;943;51.568;6.998;2023-06-22T10:51:32;46.73;41.77;56.85;;
38366;Laerm;943;51.568;6.998;2023-06-22T10:54:04;47.58;43.71;60.83;;
38366;Laerm;943;51.568;6.998;2023-06-22T10:56:34;48.37;43.06;62.20;;
38366;Laerm;943;51.568;6.998;2023-06-22T10:59:02;47.19;41.55;56.55;;
38366;Laerm;943;51.568;6.998;2023-06-22T11:01:31;47.83;42.73;58.28;;
38366;Laerm;943;51.568;6.998;2023-06-22T11:04:04;46.34;41.67;60.85;;
38366;Laerm;943;51.568;6.998;2023-06-22T11:06:33;45.89;40.34;54.79;;
38366;Laerm;943;51.568;6.998;2023-06-22T11:09:02;48.72;40.29;67.18;;
38366;Laerm;943;51.568;6.998;2023-06-22T11:11:52;45.77;40.73;53.40;;
38366;Laerm;943;51.568;6.998;2023-06-22T11:14:24;48.18;40.54;62.54;;
38366;Laerm;943;51.568;6.998;2023-06-22T11:16:52;53.21;40.11;61.92;;
38366;Laerm;943;51.568;6.998;2023-06-22T11:19:21;52.50;42.62;66.04;;
38366;Laerm;943;51.568;6.998;2023-06-22T11:21:49;50.46;40.20;66.24;;
38366;Laerm;943;51.568;6.998;2023-06-22T11:24:18;49.62;40.80;66.66;;
38366;Laerm;943;51.568;6.998;2023-06-22T11:26:47;49.93;41.64;67.58;;
38366;Laerm;943;51.568;6.998;2023-06-22T11:29:15;48.67;42.63;60.29;;
38366;Laerm;943;51.568;6.998;2023-06-22T11:32:03;50.73;42.54;67.16;;
38366;Laerm;943;51.568;6.998;2023-06-22T11:34:32;50.89;41.42;66.30;;
38366;Laerm;943;51.568;6.998;2023-06-22T11:37:00;51.37;40.87;69.83;;
38366;Laerm;943;51.568;6.998;2023-06-22T11:39:29;51.24;41.38;64.89;;
38366;Laerm;943;51.568;6.998;2023-06-22T11:42:13;51.96;41.22;67.12;;
38366;Laerm;943;51.568;6.998;2023-06-22T11:44:43;49.00;41.27;68.04;;
38366;Laerm;943;51.568;6.998;2023-06-22T11:47:12;49.17;42.95;67.14;;
38366;Laerm;943;51.568;6.998;2023-06-22T11:49:42;47.16;43.34;62.81;;
38366;Laerm;943;51.568;6.998;2023-06-22T11:52:10;47.21;43.65;62.92;;
38366;Laerm;943;51.568;6.998;2023-06-22T11:54:38;49.49;45.44;66.30;;
38366;Laerm;943;51.568;6.998;2023-06-22T11:57:07;50.50;45.47;61.61;;
38366;Laerm;943;51.568;6.998;2023-06-22T11:59:36;50.89;46.51;63.27;;
38366;Laerm;943;51.568;6.998;2023-06-22T12:02:05;51.48;47.62;65.67;;
38366;Laerm;943;51.568;6.998;2023-06-22T12:04:35;51.76;48.23;60.95;;
38366;Laerm;943;51.568;6.998;2023-06-22T12:07:04;52.84;50.67;60.83;;
38366;Laerm;943;51.568;6.998;2023-06-22T12:09:33;53.83;49.74;65.61;;
38366;Laerm;943;51.568;6.998;2023-06-22T12:12:01;52.78;48.74;63.81;;
38366;Laerm;943;51.568;6.998;2023-06-22T12:14:30;54.19;50.71;66.60;;
38366;Laerm;943;51.568;6.998;2023-06-22T12:16:59;53.25;49.83;61.58;;
38366;Laerm;943;51.568;6.998;2023-06-22T12:19:27;54.18;51.23;62.53;;
38366;Laerm;943;51.568;6.998;2023-06-22T12:21:56;53.99;50.14;65.67;;
38366;Laerm;943;51.568;6.998;2023-06-22T12:24:25;53.82;49.72;73.22;;
38366;Laerm;943;51.568;6.998;2023-06-22T12:26:53;50.60;46.81;64.70;;
38366;Laerm;943;51.568;6.998;2023-06-22T12:29:23;49.91;45.11;62.70;;
38366;Laerm;943;51.568;6.998;2023-06-22T12:31:51;49.04;44.79;61.10;;
38366;Laerm;943;51.568;6.998;2023-06-22T12:34:21;48.36;44.30;57.94;;
38366;Laerm;943;51.568;6.998;2023-06-22T12:36:50;48.79;44.91;60.44;;
38366;Laerm;943;51.568;6.998;2023-06-22T12:39:22;50.45;45.96;60.61;;
38366;Laerm;943;51.568;6.998;2023-06-22T12:41:50;52.33;47.36;64.64;;
38366;Laerm;943;51.568;6.998;2023-06-22T12:44:21;51.00;46.48;61.27;;
38366;Laerm;943;51.568;6.998;2023-06-22T12:46:49;51.71;44.99;65.40;;
38366;Laerm;943;51.568;6.998;2023-06-22T12:49:18;55.08;45.78;70.86;;
38366;Laerm;943;51.568;6.998;2023-06-22T12:51:46;51.87;45.38;69.20;;
38366;Laerm;943;51.568;6.998;2023-06-22T12:54:15;52.87;45.38;74.40;;
38366;Laerm;943;51.568;6.998;2023-06-22T12:56:44;60.63;44.63;86.99;;
38366;Laerm;943;51.568;6.998;2023-06-22T12:59:13;49.30;42.54;62.56;;
38366;Laerm;943;51.568;6.998;2023-06-22T13:01:41;48.88;42.44;64.19;;
38366;Laerm;943;51.568;6.998;2023-06-22T13:04:15;49.33;43.34;63.85;;
38366;Laerm;943;51.568;6.998;2023-06-22T13:06:47;50.81;43.29;73.23;;
38366;Laerm;943;51.568;6.998;2023-06-22T13:09:26;50.75;41.62;70.05;;
38366;Laerm;943;51.568;6.998;2023-06-22T13:12:01;50.18;42.61;63.48;;
38366;Laerm;943;51.568;6.998;2023-06-22T13:14:31;49.47;42.92;63.64;;
38366;Laerm;943;51.568;6.998;2023-06-22T13:17:01;49.67;43.23;64.15;;
38366;Laerm;943;51.568;6.998;2023-06-22T13:19:31;50.74;40.78;62.55;;
38366;Laerm;943;51.568;6.998;2023-06-22T13:22:01;49.88;44.86;66.33;;
38366;Laerm;943;51.568;6.998;2023-06-22T13:24:33;48.32;44.03;64.89;;
38366;Laerm;943;51.568;6.998;2023-06-22T13:27:03;50.14;44.23;66.63;;
38366;Laerm;943;51.568;6.998;2023-06-22T13:29:34;50.77;45.60;64.32;;
38366;Laerm;943;51.568;6.998;2023-06-22T13:32:05;48.98;44.06;61.90;;
38366;Laerm;943;51.568;6.998;2023-06-22T13:34:37;50.29;43.50;66.61;;
38366;Laerm;943;51.568;6.998;2023-06-22T13:37:07;50.58;42.75;64.16;;
38366;Laerm;943;51.568;6.998;2023-06-22T13:39:40;51.68;42.77;65.35;;
38366;Laerm;943;51.568;6.998;2023-06-22T13:42:14;51.66;43.65;67.67;;
38366;Laerm;943;51.568;6.998;2023-06-22T13:44:48;49.49;43.02;61.64;;
38366;Laerm;943;51.568;6.998;2023-06-22T13:47:21;51.61;43.39;65.87;;
38366;Laerm;943;51.568;6.998;2023-06-22T13:49:59;51.54;43.03;68.72;;
38366;Laerm;943;51.568;6.998;2023-06-22T13:52:30;51.91;43.44;67.72;;
38366;Laerm;943;51.568;6.998;2023-06-22T13:55:00;48.44;42.75;60.76;;
38366;Laerm;943;51.568;6.998;2023-06-22T13:57:29;49.39;44.49;61.65;;
38366;Laerm;943;51.568;6.998;2023-06-22T13:59:58;47.33;42.65;62.93;;
38366;Laerm;943;51.568;6.998;2023-06-22T14:02:28;54.96;43.22;68.32;;
38366;Laerm;943;51.568;6.998;2023-06-22T14:04:57;54.73;43.32;78.35;;
38366;Laerm;943;51.568;6.998;2023-06-22T14:07:27;51.92;43.56;64.12;;
38366;Laerm;943;51.568;6.998;2023-06-22T14:09:56;48.76;41.95;61.98;;
38366;Laerm;943;51.568;6.998;2023-06-22T14:12:29;50.09;41.91;65.73;;
38366;Laerm;943;51.568;6.998;2023-06-22T14:14:59;49.50;44.20;66.29;;
38366;Laerm;943;51.568;6.998;2023-06-22T14:17:27;47.97;43.08;61.50;;
38366;Laerm;943;51.568;6.998;2023-06-22T14:19:56;51.35;42.81;65.15;;
38366;Laerm;943;51.568;6.998;2023-06-22T14:22:24;51.93;44.20;65.47;;
38366;Laerm;943;51.568;6.998;2023-06-22T14:24:53;53.74;42.61;76.39;;
38366;Laerm;943;51.568;6.998;2023-06-22T14:27:25;50.79;41.98;75.34;;
38366;Laerm;943;51.568;6.998;2023-06-22T14:29:53;52.93;42.94;74.88;;
38366;Laerm;943;51.568;6.998;2023-06-22T14:32:21;49.84;42.31;64.25;;